createdAt,value
2017-03-24T00:00:20.921Z,1003.9
2017-03-24T00:01:01.570Z,1003.94
2017-03-24T00:01:42.230Z,1003.91
2017-03-24T00:02:22.833Z,1003.91
2017-03-24T00:03:03.485Z,1003.93
2017-03-24T00:03:44.120Z,1003.91
2017-03-24T00:04:24.751Z,1003.88
2017-03-24T00:05:05.413Z,1003.91
2017-03-24T00:05:46.039Z,1003.96
2017-03-24T00:06:26.681Z,1003.91
2017-03-24T00:07:07.343Z,1003.94
2017-03-24T00:07:47.983Z,1003.91
2017-03-24T00:08:28.626Z,1003.91
2017-03-24T00:09:09.263Z,1003.91
2017-03-24T00:09:49.906Z,1003.88
2017-03-24T00:10:30.541Z,1003.87
2017-03-24T00:11:11.174Z,1003.88
2017-03-24T00:11:51.805Z,1003.87
2017-03-24T00:12:32.437Z,1003.88
2017-03-24T00:13:13.104Z,1003.87
2017-03-24T00:13:53.739Z,1003.84
2017-03-24T00:14:34.412Z,1003.81
2017-03-24T00:15:15.128Z,1003.82
2017-03-24T00:15:55.770Z,1003.8
2017-03-24T00:16:36.426Z,1003.8
2017-03-24T00:17:17.089Z,1003.81
2017-03-24T00:17:57.725Z,1003.79
2017-03-24T00:18:38.350Z,1003.78
2017-03-24T00:19:18.977Z,1003.81
2017-03-24T00:19:59.605Z,1003.8
2017-03-24T00:20:40.281Z,1003.83
2017-03-24T00:21:21.036Z,1003.82
2017-03-24T00:22:01.680Z,1003.79
2017-03-24T00:22:42.321Z,1003.83
2017-03-24T00:23:22.955Z,1003.8
2017-03-24T00:24:03.607Z,1003.82
2017-03-24T00:24:44.248Z,1003.81
2017-03-24T00:25:24.892Z,1003.78
2017-03-24T00:26:05.532Z,1003.77
2017-03-24T00:26:46.172Z,1003.78
2017-03-24T00:27:26.798Z,1003.79
2017-03-24T00:28:07.457Z,1003.84
2017-03-24T00:28:48.093Z,1003.81
2017-03-24T00:29:28.731Z,1003.82
2017-03-24T00:30:09.368Z,1003.84
2017-03-24T00:30:49.996Z,1003.83
2017-03-24T00:31:30.624Z,1003.86
2017-03-24T00:32:11.321Z,1003.85
2017-03-24T00:32:51.961Z,1003.83
2017-03-24T00:33:32.665Z,1003.84
2017-03-24T00:34:13.338Z,1003.85
2017-03-24T00:34:53.965Z,1003.87
2017-03-24T00:35:34.672Z,1003.87
2017-03-24T00:36:15.300Z,1003.86
2017-03-24T00:36:55.931Z,1003.82
2017-03-24T00:37:36.628Z,1003.85
2017-03-24T00:38:17.260Z,1003.85
2017-03-24T00:38:57.901Z,1003.81
2017-03-24T00:39:38.581Z,1003.82
2017-03-24T00:40:19.266Z,1003.81
2017-03-24T00:40:59.973Z,1003.84
2017-03-24T00:41:40.601Z,1003.82
2017-03-24T00:42:21.300Z,1003.85
2017-03-24T00:43:01.997Z,1003.87
2017-03-24T00:43:42.626Z,1003.85
2017-03-24T00:44:23.277Z,1003.86
2017-03-24T00:45:03.910Z,1003.85
2017-03-24T00:45:44.540Z,1003.84
2017-03-24T00:46:25.260Z,1003.81
2017-03-24T00:47:05.900Z,1003.82
2017-03-24T00:47:46.604Z,1003.81
2017-03-24T00:48:27.224Z,1003.8
2017-03-24T00:49:07.919Z,1003.84
2017-03-24T00:49:48.631Z,1003.83
2017-03-24T00:50:29.262Z,1003.82
2017-03-24T00:51:09.967Z,1003.8
2017-03-24T00:51:50.692Z,1003.8
2017-03-24T00:52:31.332Z,1003.81
2017-03-24T00:53:12.041Z,1003.8
2017-03-24T00:53:52.694Z,1003.78
2017-03-24T00:54:33.328Z,1003.82
2017-03-24T00:55:13.961Z,1003.81
2017-03-24T00:55:54.637Z,1003.8
2017-03-24T00:56:35.294Z,1003.75
2017-03-24T00:57:15.941Z,1003.74
2017-03-24T00:57:56.570Z,1003.74
2017-03-24T00:58:37.312Z,1003.77
2017-03-24T00:59:17.944Z,1003.77
2017-03-24T00:59:58.626Z,1003.78
2017-03-24T01:00:39.297Z,1003.72
2017-03-24T01:01:19.930Z,1003.73
2017-03-24T01:02:00.666Z,1003.7
2017-03-24T01:02:41.336Z,1003.7
2017-03-24T01:03:22.035Z,1003.74
2017-03-24T01:04:02.680Z,1003.69
2017-03-24T01:04:43.311Z,1003.66
2017-03-24T01:05:24.011Z,1003.66
2017-03-24T01:06:04.634Z,1003.64
2017-03-24T01:06:45.376Z,1003.66
2017-03-24T01:07:26.027Z,1003.64
2017-03-24T01:08:06.657Z,1003.63
2017-03-24T01:08:47.394Z,1003.65
2017-03-24T01:09:28.052Z,1003.62
2017-03-24T01:10:08.775Z,1003.59
2017-03-24T01:10:49.428Z,1003.59
2017-03-24T01:11:30.153Z,1003.6
2017-03-24T01:12:10.833Z,1003.55
2017-03-24T01:12:51.465Z,1003.56
2017-03-24T01:13:32.191Z,1003.53
2017-03-24T01:14:12.952Z,1003.54
2017-03-24T01:14:53.606Z,1003.5
2017-03-24T01:15:34.241Z,1003.53
2017-03-24T01:16:14.955Z,1003.52
2017-03-24T01:16:55.625Z,1003.5
2017-03-24T01:17:36.300Z,1003.49
2017-03-24T01:18:17.005Z,1003.55
2017-03-24T01:18:57.656Z,1003.49
2017-03-24T01:19:38.315Z,1003.5
2017-03-24T01:20:19.001Z,1003.48
2017-03-24T01:20:59.635Z,1003.47
2017-03-24T01:21:40.393Z,1003.49
2017-03-24T01:22:21.028Z,1003.48
2017-03-24T01:23:01.669Z,1003.5
2017-03-24T01:23:42.324Z,1003.52
2017-03-24T01:24:22.966Z,1003.54
2017-03-24T01:25:03.651Z,1003.58
2017-03-24T01:25:44.317Z,1003.56
2017-03-24T01:26:24.942Z,1003.55
2017-03-24T01:27:05.687Z,1003.56
2017-03-24T01:27:46.324Z,1003.52
2017-03-24T01:28:26.967Z,1003.59
2017-03-24T01:29:07.608Z,1003.58
2017-03-24T01:29:48.234Z,1003.62
2017-03-24T01:30:28.896Z,1003.62
2017-03-24T01:31:09.534Z,1003.62
2017-03-24T01:31:50.214Z,1003.59
2017-03-24T01:32:30.852Z,1003.62
2017-03-24T01:33:11.487Z,1003.63
2017-03-24T01:33:52.137Z,1003.66
2017-03-24T01:34:32.848Z,1003.66
2017-03-24T01:35:13.498Z,1003.65
2017-03-24T01:35:54.240Z,1003.66
2017-03-24T01:36:34.948Z,1003.65
2017-03-24T01:37:15.578Z,1003.66
2017-03-24T01:37:56.273Z,1003.62
2017-03-24T01:38:36.904Z,1003.62
2017-03-24T01:39:17.542Z,1003.59
2017-03-24T01:39:58.171Z,1003.61
2017-03-24T01:40:38.856Z,1003.64
2017-03-24T01:41:19.526Z,1003.64
2017-03-24T01:42:00.170Z,1003.6
2017-03-24T01:42:40.794Z,1003.58
2017-03-24T01:43:21.418Z,1003.59
2017-03-24T01:44:02.045Z,1003.59
2017-03-24T01:44:42.682Z,1003.58
2017-03-24T01:45:23.390Z,1003.55
2017-03-24T01:46:04.031Z,1003.59
2017-03-24T01:46:44.770Z,1003.56
2017-03-24T01:47:25.448Z,1003.57
2017-03-24T01:48:06.074Z,1003.58
2017-03-24T01:48:46.803Z,1003.54
2017-03-24T01:49:27.462Z,1003.55
2017-03-24T01:50:08.088Z,1003.54
2017-03-24T01:50:48.746Z,1003.55
2017-03-24T01:51:29.410Z,1003.57
2017-03-24T01:52:10.029Z,1003.53
2017-03-24T01:52:50.655Z,1003.56
2017-03-24T01:53:31.286Z,1003.5
2017-03-24T01:54:11.990Z,1003.48
2017-03-24T01:54:52.544Z,1003.52
2017-03-24T01:55:33.285Z,1003.47
2017-03-24T01:56:14.004Z,1003.46
2017-03-24T01:56:54.633Z,1003.5
2017-03-24T01:57:35.257Z,1003.47
2017-03-24T01:58:15.893Z,1003.46
2017-03-24T01:58:56.531Z,1003.46
2017-03-24T01:59:37.262Z,1003.47
2017-03-24T02:00:17.958Z,1003.46
2017-03-24T02:00:58.590Z,1003.4
2017-03-24T02:01:39.222Z,1003.43
2017-03-24T02:02:19.892Z,1003.41
2017-03-24T02:03:00.521Z,1003.45
2017-03-24T02:03:41.185Z,1003.44
2017-03-24T02:04:21.915Z,1003.43
2017-03-24T02:05:02.568Z,1003.41
2017-03-24T02:05:43.197Z,1003.43
2017-03-24T02:06:23.880Z,1003.42
2017-03-24T02:07:04.529Z,1003.4
2017-03-24T02:07:45.163Z,1003.38
2017-03-24T02:08:25.838Z,1003.36
2017-03-24T02:09:06.479Z,1003.36
2017-03-24T02:09:47.107Z,1003.35
2017-03-24T02:10:27.761Z,1003.39
2017-03-24T02:11:08.387Z,1003.38
2017-03-24T02:11:49.008Z,1003.36
2017-03-24T02:12:29.732Z,1003.37
2017-03-24T02:13:10.354Z,1003.4
2017-03-24T02:13:50.983Z,1003.38
2017-03-24T02:14:31.618Z,1003.33
2017-03-24T02:15:12.252Z,1003.34
2017-03-24T02:15:52.888Z,1003.35
2017-03-24T02:16:33.548Z,1003.29
2017-03-24T02:17:14.197Z,1003.32
2017-03-24T02:17:54.823Z,1003.28
2017-03-24T02:18:35.510Z,1003.28
2017-03-24T02:19:16.141Z,1003.27
2017-03-24T02:19:56.765Z,1003.24
2017-03-24T02:20:37.412Z,1003.22
2017-03-24T02:21:18.164Z,1003.2
2017-03-24T02:21:58.786Z,1003.23
2017-03-24T02:22:39.413Z,1003.24
2017-03-24T02:23:20.047Z,1003.2
2017-03-24T02:24:00.671Z,1003.18
2017-03-24T02:24:41.369Z,1003.17
2017-03-24T02:25:22.035Z,1003.18
2017-03-24T02:26:02.770Z,1003.14
2017-03-24T02:26:43.410Z,1003.13
2017-03-24T02:27:24.131Z,1003.11
2017-03-24T02:28:04.803Z,1003.12
2017-03-24T02:28:45.445Z,1003.15
2017-03-24T02:29:26.091Z,1003.13
2017-03-24T02:30:06.770Z,1003.11
2017-03-24T02:30:47.396Z,1003.11
2017-03-24T02:31:28.023Z,1003.09
2017-03-24T02:32:08.652Z,1003.11
2017-03-24T02:32:49.281Z,1003.08
2017-03-24T02:33:29.991Z,1003.12
2017-03-24T02:34:10.622Z,1003.12
2017-03-24T02:34:51.246Z,1003.13
2017-03-24T02:35:31.941Z,1003.1
2017-03-24T02:36:12.624Z,1003.08
2017-03-24T02:36:53.326Z,1003.06
2017-03-24T02:37:33.976Z,1003.05
2017-03-24T02:38:14.731Z,1003.05
2017-03-24T02:38:55.464Z,1003.04
2017-03-24T02:39:36.148Z,1003.06
2017-03-24T02:40:16.781Z,1003.06
2017-03-24T02:40:57.403Z,1003.02
2017-03-24T02:41:38.078Z,1003.02
2017-03-24T02:42:18.697Z,1003.05
2017-03-24T02:42:59.353Z,1003.03
2017-03-24T02:43:40.064Z,1003.05
2017-03-24T02:44:20.700Z,1003.02
2017-03-24T02:45:01.455Z,1003
2017-03-24T02:45:42.110Z,1003.08
2017-03-24T02:46:22.735Z,1003.04
2017-03-24T02:47:03.391Z,1003.08
2017-03-24T02:47:44.081Z,1003.12
2017-03-24T02:48:24.707Z,1003.09
2017-03-24T02:49:05.415Z,1003.11
2017-03-24T02:49:46.084Z,1003.1
2017-03-24T02:50:26.795Z,1003.14
2017-03-24T02:51:07.439Z,1003.14
2017-03-24T02:51:48.167Z,1003.15
2017-03-24T02:52:28.855Z,1003.13
2017-03-24T02:53:09.486Z,1003.14
2017-03-24T02:53:50.141Z,1003.15
2017-03-24T02:54:30.768Z,1003.14
2017-03-24T02:55:11.404Z,1003.16
2017-03-24T02:55:52.035Z,1003.15
2017-03-24T02:56:32.657Z,1003.12
2017-03-24T02:57:13.278Z,1003.14
2017-03-24T02:57:53.902Z,1003.1
2017-03-24T02:58:34.586Z,1003.06
2017-03-24T02:59:15.221Z,1003.09
2017-03-24T02:59:55.851Z,1003.14
2017-03-24T03:00:36.481Z,1003.11
2017-03-24T03:01:17.136Z,1003.09
2017-03-24T03:01:57.828Z,1003.07
2017-03-24T03:02:38.529Z,1003.07
2017-03-24T03:03:19.240Z,1003.1
2017-03-24T03:03:59.780Z,1003.1
2017-03-24T03:04:40.423Z,1003.06
2017-03-24T03:05:21.045Z,1003.09
2017-03-24T03:06:01.690Z,1003.05
2017-03-24T03:06:42.316Z,1003.1
2017-03-24T03:07:22.945Z,1003.02
2017-03-24T03:08:03.589Z,1003.04
2017-03-24T03:08:44.226Z,1003.06
2017-03-24T03:09:24.850Z,1003.06
2017-03-24T03:10:05.534Z,1003.04
2017-03-24T03:10:46.159Z,1003.06
2017-03-24T03:11:26.795Z,1003.05
2017-03-24T03:12:07.491Z,1003.07
2017-03-24T03:12:48.126Z,1003.04
2017-03-24T03:13:28.756Z,1003.05
2017-03-24T03:14:09.371Z,1003.05
2017-03-24T03:14:49.998Z,1003.04
2017-03-24T03:15:30.633Z,1003.01
2017-03-24T03:16:11.265Z,1002.99
2017-03-24T03:16:51.904Z,1003.01
2017-03-24T03:17:32.533Z,1002.99
2017-03-24T03:18:13.230Z,1003.02
2017-03-24T03:18:53.906Z,1003.02
2017-03-24T03:19:34.551Z,1002.98
2017-03-24T03:20:15.192Z,1003.01
2017-03-24T03:20:55.870Z,1003
2017-03-24T03:21:36.538Z,1003.02
2017-03-24T03:22:17.192Z,1003.02
2017-03-24T03:22:57.827Z,1003
2017-03-24T03:23:38.520Z,1003.02
2017-03-24T03:24:19.151Z,1002.99
2017-03-24T03:24:59.864Z,1003.03
2017-03-24T03:25:40.528Z,1003.03
2017-03-24T03:26:21.155Z,1003.01
2017-03-24T03:27:01.911Z,1003.02
2017-03-24T03:27:42.558Z,1002.97
2017-03-24T03:28:23.183Z,1002.95
2017-03-24T03:29:03.837Z,1002.98
2017-03-24T03:29:44.464Z,1002.97
2017-03-24T03:30:25.156Z,1002.95
2017-03-24T03:31:05.714Z,1002.92
2017-03-24T03:31:46.483Z,1002.93
2017-03-24T03:32:27.148Z,1002.93
2017-03-24T03:33:07.771Z,1002.96
2017-03-24T03:33:48.509Z,1002.94
2017-03-24T03:34:29.197Z,1002.98
2017-03-24T03:35:09.824Z,1002.96
2017-03-24T03:35:50.460Z,1002.97
2017-03-24T03:36:31.097Z,1003.01
2017-03-24T03:37:11.723Z,1002.95
2017-03-24T03:37:52.460Z,1002.96
2017-03-24T03:38:33.155Z,1002.92
2017-03-24T03:39:13.886Z,1002.98
2017-03-24T03:39:54.530Z,1002.97
2017-03-24T03:40:35.212Z,1002.98
2017-03-24T03:41:15.912Z,1002.94
2017-03-24T03:41:56.540Z,1002.97
2017-03-24T03:42:37.212Z,1002.98
2017-03-24T03:43:17.831Z,1002.96
2017-03-24T03:43:58.468Z,1002.94
2017-03-24T03:44:39.213Z,1002.95
2017-03-24T03:45:19.856Z,1002.97
2017-03-24T03:46:00.539Z,1002.94
2017-03-24T03:46:41.209Z,1002.96
2017-03-24T03:47:21.834Z,1002.94
2017-03-24T03:48:02.546Z,1002.94
2017-03-24T03:48:43.167Z,1002.98
2017-03-24T03:49:23.898Z,1002.89
2017-03-24T03:50:04.564Z,1002.89
2017-03-24T03:50:45.191Z,1002.9
2017-03-24T03:51:25.920Z,1002.91
2017-03-24T03:52:06.605Z,1002.94
2017-03-24T03:52:47.307Z,1002.87
2017-03-24T03:53:27.958Z,1002.91
2017-03-24T03:54:08.715Z,1002.82
2017-03-24T03:54:49.432Z,1002.87
2017-03-24T03:55:30.064Z,1002.84
2017-03-24T03:56:10.774Z,1002.85
2017-03-24T03:56:51.441Z,1002.81
2017-03-24T03:57:32.073Z,1002.85
2017-03-24T03:58:12.713Z,1002.81
2017-03-24T03:58:53.376Z,1002.85
2017-03-24T03:59:34.085Z,1002.88
2017-03-24T04:00:14.723Z,1002.86
2017-03-24T04:00:55.440Z,1002.9
2017-03-24T04:01:36.087Z,1002.91
2017-03-24T04:02:16.711Z,1002.92
2017-03-24T04:02:57.363Z,1002.9
2017-03-24T04:03:38.032Z,1002.91
2017-03-24T04:04:18.663Z,1002.91
2017-03-24T04:04:59.365Z,1002.95
2017-03-24T04:05:40.142Z,1002.96
2017-03-24T04:06:20.795Z,1002.93
2017-03-24T04:07:01.424Z,1002.93
2017-03-24T04:07:42.053Z,1002.93
2017-03-24T04:08:22.735Z,1002.94
2017-03-24T04:09:03.364Z,1002.99
2017-03-24T04:09:44.128Z,1002.98
2017-03-24T04:10:24.756Z,1002.97
2017-03-24T04:11:05.379Z,1003
2017-03-24T04:11:46.106Z,1003.05
2017-03-24T04:12:26.780Z,1003.03
2017-03-24T04:13:07.485Z,1003.03
2017-03-24T04:13:48.122Z,1003.05
2017-03-24T04:14:28.745Z,1003.08
2017-03-24T04:15:09.379Z,1003.06
2017-03-24T04:15:50.008Z,1003.09
2017-03-24T04:16:30.650Z,1003.1
2017-03-24T04:17:11.322Z,1003.11
2017-03-24T04:17:51.919Z,1003.07
2017-03-24T04:18:32.602Z,1003.04
2017-03-24T04:19:13.231Z,1003.02
2017-03-24T04:19:53.867Z,1003.07
2017-03-24T04:20:34.502Z,1003.07
2017-03-24T04:21:15.132Z,1003.06
2017-03-24T04:21:55.756Z,1003.1
2017-03-24T04:22:36.445Z,1003.09
2017-03-24T04:23:17.084Z,1003.06
2017-03-24T04:23:57.709Z,1003.11
2017-03-24T04:24:38.342Z,1003.12
2017-03-24T04:25:18.962Z,1003.1
2017-03-24T04:25:59.585Z,1003.08
2017-03-24T04:26:40.316Z,1003.07
2017-03-24T04:27:20.939Z,1003.1
2017-03-24T04:28:01.560Z,1003.06
2017-03-24T04:28:42.197Z,1003.1
2017-03-24T04:29:22.831Z,1003.1
2017-03-24T04:30:03.455Z,1003.1
2017-03-24T04:30:44.083Z,1003.09
2017-03-24T04:31:24.736Z,1003.12
2017-03-24T04:32:05.384Z,1003.11
2017-03-24T04:32:46.016Z,1003.07
2017-03-24T04:33:27.416Z,1003.11
2017-03-24T04:34:08.038Z,1003.1
2017-03-24T04:34:48.700Z,1003.12
2017-03-24T04:35:29.298Z,1003.08
2017-03-24T04:36:10.021Z,1003.08
2017-03-24T04:36:50.659Z,1003.07
2017-03-24T04:37:31.281Z,1003.08
2017-03-24T04:38:11.909Z,1003.04
2017-03-24T04:38:52.536Z,1003.03
2017-03-24T04:39:33.158Z,1003.02
2017-03-24T04:40:13.830Z,1003.02
2017-03-24T04:40:54.455Z,1003.01
2017-03-24T04:41:35.079Z,1003.01
2017-03-24T04:42:15.709Z,1003.02
2017-03-24T04:42:56.336Z,1003.01
2017-03-24T04:43:36.966Z,1003.02
2017-03-24T04:44:17.649Z,1003.02
2017-03-24T04:44:58.277Z,1003.06
2017-03-24T04:45:38.901Z,1003.03
2017-03-24T04:46:19.560Z,1003.06
2017-03-24T04:47:00.189Z,1003.06
2017-03-24T04:47:40.820Z,1003.04
2017-03-24T04:48:21.538Z,1003.02
2017-03-24T04:49:02.178Z,1003.01
2017-03-24T04:49:42.831Z,1003.01
2017-03-24T04:50:23.534Z,1003.03
2017-03-24T04:51:04.233Z,1003
2017-03-24T04:51:44.911Z,1003.02
2017-03-24T04:52:25.492Z,1003
2017-03-24T04:53:06.131Z,1003.01
2017-03-24T04:53:46.801Z,1003.01
2017-03-24T04:54:27.390Z,1003.02
2017-03-24T04:55:08.041Z,1003.05
2017-03-24T04:55:48.666Z,1003.05
2017-03-24T04:56:29.361Z,1003.04
2017-03-24T04:57:09.992Z,1003.06
2017-03-24T04:57:50.669Z,1003.02
2017-03-24T04:58:31.295Z,1002.96
2017-03-24T04:59:11.972Z,1003.01
2017-03-24T04:59:52.715Z,1003
2017-03-24T05:00:33.350Z,1002.98
2017-03-24T05:01:14.043Z,1003.01
2017-03-24T05:01:54.790Z,1003.01
2017-03-24T05:02:35.454Z,1003.01
2017-03-24T05:03:16.042Z,1003.01
2017-03-24T05:03:56.667Z,1003
2017-03-24T05:04:37.293Z,1002.98
2017-03-24T05:05:17.975Z,1003.01
2017-03-24T05:05:58.667Z,1003
2017-03-24T05:06:39.306Z,1002.99
2017-03-24T05:07:19.926Z,1002.99
2017-03-24T05:08:00.614Z,1002.98
2017-03-24T05:08:41.285Z,1002.95
2017-03-24T05:09:21.922Z,1003
2017-03-24T05:10:02.552Z,1002.98
2017-03-24T05:10:43.176Z,1003
2017-03-24T05:11:23.798Z,1003
2017-03-24T05:12:04.471Z,1003.02
2017-03-24T05:12:45.188Z,1003.02
2017-03-24T05:13:25.815Z,1003.01
2017-03-24T05:14:06.455Z,1003.01
2017-03-24T05:14:47.084Z,1003.03
2017-03-24T05:15:27.706Z,1003.06
2017-03-24T05:16:08.447Z,1003.05
2017-03-24T05:16:49.079Z,1003.08
2017-03-24T05:17:29.716Z,1003.06
2017-03-24T05:18:10.339Z,1003.08
2017-03-24T05:18:51.056Z,1003.06
2017-03-24T05:19:31.688Z,1003.02
2017-03-24T05:20:12.385Z,1003.07
2017-03-24T05:20:53.038Z,1003.08
2017-03-24T05:21:33.658Z,1003.07
2017-03-24T05:22:14.286Z,1003.05
2017-03-24T05:22:54.938Z,1003.09
2017-03-24T05:23:35.572Z,1003.11
2017-03-24T05:24:16.205Z,1003.09
2017-03-24T05:24:56.963Z,1003.07
2017-03-24T05:25:37.673Z,1003.11
2017-03-24T05:26:18.307Z,1003.1
2017-03-24T05:26:58.937Z,1003.1
2017-03-24T05:27:39.577Z,1003.1
2017-03-24T05:28:20.204Z,1003.05
2017-03-24T05:29:00.866Z,1003.11
2017-03-24T05:29:41.496Z,1003.14
2017-03-24T05:30:22.137Z,1003.17
2017-03-24T05:31:02.878Z,1003.13
2017-03-24T05:31:44.092Z,1003.15
2017-03-24T05:32:24.785Z,1003.15
2017-03-24T05:33:05.458Z,1003.13
2017-03-24T05:33:46.090Z,1003.16
2017-03-24T05:34:26.815Z,1003.16
2017-03-24T05:35:07.494Z,1003.16
2017-03-24T05:35:48.193Z,1003.13
2017-03-24T05:36:28.833Z,1003.18
2017-03-24T05:37:09.461Z,1003.15
2017-03-24T05:37:50.090Z,1003.16
2017-03-24T05:38:30.731Z,1003.15
2017-03-24T05:39:11.389Z,1003.15
2017-03-24T05:39:52.017Z,1003.14
2017-03-24T05:40:32.642Z,1003.17
2017-03-24T05:41:13.278Z,1003.18
2017-03-24T05:41:53.982Z,1003.21
2017-03-24T05:42:34.626Z,1003.17
2017-03-24T05:43:15.257Z,1003.19
2017-03-24T05:43:55.918Z,1003.16
2017-03-24T05:44:36.549Z,1003.18
2017-03-24T05:45:17.173Z,1003.15
2017-03-24T05:45:57.864Z,1003.19
2017-03-24T05:46:38.499Z,1003.15
2017-03-24T05:47:19.125Z,1003.15
2017-03-24T05:47:59.747Z,1003.15
2017-03-24T05:48:40.366Z,1003.13
2017-03-24T05:49:21.057Z,1003.15
2017-03-24T05:50:01.684Z,1003.13
2017-03-24T05:50:42.335Z,1003.13
2017-03-24T05:51:22.975Z,1003.11
2017-03-24T05:52:03.598Z,1003.09
2017-03-24T05:52:44.242Z,1003.09
2017-03-24T05:53:24.903Z,1003.1
2017-03-24T05:54:05.522Z,1003.08
2017-03-24T05:54:46.162Z,1003.06
2017-03-24T05:55:26.814Z,1003.1
2017-03-24T05:56:07.447Z,1003.05
2017-03-24T05:56:48.065Z,1003.04
2017-03-24T05:57:28.798Z,1003.1
2017-03-24T05:58:09.424Z,1003.08
2017-03-24T05:58:50.044Z,1003.09
2017-03-24T05:59:30.716Z,1003.08
2017-03-24T06:00:11.347Z,1003.07
2017-03-24T06:00:51.972Z,1003.03
2017-03-24T06:01:32.661Z,1003.04
2017-03-24T06:02:13.337Z,1003.04
2017-03-24T06:02:53.966Z,1003.04
2017-03-24T06:03:34.689Z,1003.05
2017-03-24T06:04:15.409Z,1003.05
2017-03-24T06:04:56.113Z,1003.06
2017-03-24T06:05:36.742Z,1003.06
2017-03-24T06:06:17.435Z,1003.09
2017-03-24T06:06:58.081Z,1003.09
2017-03-24T06:07:38.716Z,1003.13
2017-03-24T06:08:19.366Z,1003.12
2017-03-24T06:09:00.013Z,1003.11
2017-03-24T06:09:40.633Z,1003.15
2017-03-24T06:10:21.292Z,1003.16
2017-03-24T06:11:02.041Z,1003.13
2017-03-24T06:11:42.666Z,1003.11
2017-03-24T06:12:23.340Z,1003.1
2017-03-24T06:13:04.080Z,1003.11
2017-03-24T06:13:44.726Z,1003.18
2017-03-24T06:14:25.351Z,1003.14
2017-03-24T06:15:06.074Z,1003.18
2017-03-24T06:15:46.744Z,1003.16
2017-03-24T06:16:27.375Z,1003.13
2017-03-24T06:17:08.044Z,1003.19
2017-03-24T06:17:48.708Z,1003.16
2017-03-24T06:18:29.338Z,1003.14
2017-03-24T06:19:09.967Z,1003.19
2017-03-24T06:19:50.639Z,1003.17
2017-03-24T06:20:31.264Z,1003.2
2017-03-24T06:21:11.983Z,1003.21
2017-03-24T06:21:52.627Z,1003.24
2017-03-24T06:22:33.297Z,1003.23
2017-03-24T06:23:13.899Z,1003.3
2017-03-24T06:23:54.562Z,1003.29
2017-03-24T06:24:35.266Z,1003.3
2017-03-24T06:25:15.915Z,1003.33
2017-03-24T06:25:56.535Z,1003.3
2017-03-24T06:26:37.954Z,1003.35
2017-03-24T06:27:18.582Z,1003.33
2017-03-24T06:27:59.325Z,1003.35
2017-03-24T06:28:39.946Z,1003.31
2017-03-24T06:29:20.569Z,1003.32
2017-03-24T06:30:01.281Z,1003.31
2017-03-24T06:30:41.930Z,1003.31
2017-03-24T06:31:22.538Z,1003.26
2017-03-24T06:32:03.184Z,1003.28
2017-03-24T06:32:43.815Z,1003.24
2017-03-24T06:33:24.454Z,1003.28
2017-03-24T06:34:05.132Z,1003.26
2017-03-24T06:34:45.809Z,1003.26
2017-03-24T06:35:26.394Z,1003.21
2017-03-24T06:36:07.109Z,1003.24
2017-03-24T06:36:47.736Z,1003.24
2017-03-24T06:37:28.378Z,1003.26
2017-03-24T06:38:09.074Z,1003.25
2017-03-24T06:38:49.777Z,1003.26
2017-03-24T06:39:30.409Z,1003.25
2017-03-24T06:40:11.090Z,1003.27
2017-03-24T06:40:51.718Z,1003.27
2017-03-24T06:41:32.351Z,1003.29
2017-03-24T06:42:13.024Z,1003.28
2017-03-24T06:42:53.653Z,1003.31
2017-03-24T06:43:34.279Z,1003.28
2017-03-24T06:44:14.947Z,1003.27
2017-03-24T06:44:55.665Z,1003.25
2017-03-24T06:45:36.290Z,1003.29
2017-03-24T06:46:16.977Z,1003.28
2017-03-24T06:46:57.619Z,1003.31
2017-03-24T06:47:38.348Z,1003.29
2017-03-24T06:48:18.932Z,1003.33
2017-03-24T06:48:59.578Z,1003.38
2017-03-24T06:49:40.251Z,1003.35
2017-03-24T06:50:20.892Z,1003.36
2017-03-24T06:51:01.524Z,1003.42
2017-03-24T06:51:42.222Z,1003.43
2017-03-24T06:52:22.858Z,1003.42
2017-03-24T06:53:03.561Z,1003.45
2017-03-24T06:53:44.234Z,1003.45
2017-03-24T06:54:24.862Z,1003.46
2017-03-24T06:55:05.535Z,1003.51
2017-03-24T06:55:46.206Z,1003.5
2017-03-24T06:56:26.827Z,1003.48
2017-03-24T06:57:07.513Z,1003.51
2017-03-24T06:57:48.139Z,1003.56
2017-03-24T06:58:28.765Z,1003.57
2017-03-24T06:59:09.455Z,1003.62
2017-03-24T06:59:50.124Z,1003.64
2017-03-24T07:00:30.787Z,1003.64
2017-03-24T07:01:11.407Z,1003.64
2017-03-24T07:01:52.102Z,1003.64
2017-03-24T07:02:32.734Z,1003.67
2017-03-24T07:03:13.364Z,1003.69
2017-03-24T07:03:53.997Z,1003.69
2017-03-24T07:04:34.662Z,1003.7
2017-03-24T07:05:15.309Z,1003.71
2017-03-24T07:05:55.943Z,1003.7
2017-03-24T07:06:36.611Z,1003.7
2017-03-24T07:07:17.253Z,1003.72
2017-03-24T07:07:57.902Z,1003.7
2017-03-24T07:08:38.571Z,1003.72
2017-03-24T07:09:19.196Z,1003.74
2017-03-24T07:09:59.825Z,1003.74
2017-03-24T07:10:40.453Z,1003.76
2017-03-24T07:11:21.073Z,1003.77
2017-03-24T07:12:01.732Z,1003.76
2017-03-24T07:12:42.359Z,1003.75
2017-03-24T07:13:22.987Z,1003.79
2017-03-24T07:14:03.642Z,1003.76
2017-03-24T07:14:44.271Z,1003.77
2017-03-24T07:15:24.901Z,1003.76
2017-03-24T07:16:05.604Z,1003.78
2017-03-24T07:16:46.290Z,1003.79
2017-03-24T07:17:26.918Z,1003.75
2017-03-24T07:18:07.615Z,1003.81
2017-03-24T07:18:48.289Z,1003.81
2017-03-24T07:19:28.923Z,1003.81
2017-03-24T07:20:09.569Z,1003.82
2017-03-24T07:20:50.200Z,1003.8
2017-03-24T07:21:30.829Z,1003.82
2017-03-24T07:22:11.498Z,1003.8
2017-03-24T07:22:52.122Z,1003.83
2017-03-24T07:23:32.766Z,1003.83
2017-03-24T07:24:13.398Z,1003.79
2017-03-24T07:24:54.075Z,1003.79
2017-03-24T07:25:34.698Z,1003.78
2017-03-24T07:26:15.381Z,1003.82
2017-03-24T07:26:56.022Z,1003.83
2017-03-24T07:27:36.660Z,1003.76
2017-03-24T07:28:17.318Z,1003.81
2017-03-24T07:28:57.951Z,1003.81
2017-03-24T07:29:38.594Z,1003.8
2017-03-24T07:30:19.247Z,1003.82
2017-03-24T07:30:59.939Z,1003.86
2017-03-24T07:31:40.638Z,1003.85
2017-03-24T07:32:21.262Z,1003.86
2017-03-24T07:33:02.017Z,1003.89
2017-03-24T07:33:42.725Z,1003.9
2017-03-24T07:34:23.354Z,1003.91
2017-03-24T07:35:04.079Z,1003.93
2017-03-24T07:35:44.719Z,1003.97
2017-03-24T07:36:25.389Z,1003.92
2017-03-24T07:37:06.029Z,1003.97
2017-03-24T07:37:46.663Z,1003.97
2017-03-24T07:38:27.337Z,1004.03
2017-03-24T07:39:07.988Z,1004.03
2017-03-24T07:39:48.710Z,1004.06
2017-03-24T07:40:29.378Z,1004.06
2017-03-24T07:41:10.003Z,1004.07
2017-03-24T07:41:50.636Z,1004.08
2017-03-24T07:42:31.306Z,1004.09
2017-03-24T07:43:11.939Z,1004.11
2017-03-24T07:43:52.629Z,1004.08
2017-03-24T07:44:33.331Z,1004.08
2017-03-24T07:45:14.003Z,1004.05
2017-03-24T07:45:54.629Z,1004.04
2017-03-24T07:46:35.262Z,1004.02
2017-03-24T07:47:15.925Z,1004.04
2017-03-24T07:47:56.547Z,1004.04
2017-03-24T07:48:37.195Z,1004.09
2017-03-24T07:49:17.910Z,1004.09
2017-03-24T07:49:58.547Z,1004.13
2017-03-24T07:50:39.181Z,1004.15
2017-03-24T07:51:19.876Z,1004.18
2017-03-24T07:52:00.499Z,1004.18
2017-03-24T07:52:41.214Z,1004.17
2017-03-24T07:53:21.847Z,1004.17
2017-03-24T07:54:02.480Z,1004.17
2017-03-24T07:54:43.117Z,1004.15
2017-03-24T07:55:23.880Z,1004.17
2017-03-24T07:56:04.518Z,1004.22
2017-03-24T07:56:45.234Z,1004.24
2017-03-24T07:57:25.889Z,1004.25
2017-03-24T07:58:06.609Z,1004.27
2017-03-24T07:58:47.249Z,1004.29
2017-03-24T07:59:27.924Z,1004.28
2017-03-24T08:00:08.623Z,1004.3
2017-03-24T08:00:49.249Z,1004.3
2017-03-24T08:01:29.959Z,1004.3
2017-03-24T08:02:10.575Z,1004.32
2017-03-24T08:02:51.209Z,1004.33
2017-03-24T08:03:31.897Z,1004.31
2017-03-24T08:04:12.575Z,1004.32
2017-03-24T08:04:53.281Z,1004.31
2017-03-24T08:05:33.909Z,1004.28
2017-03-24T08:06:14.531Z,1004.28
2017-03-24T08:06:55.210Z,1004.3
2017-03-24T08:07:35.845Z,1004.26
2017-03-24T08:08:16.599Z,1004.27
2017-03-24T08:08:57.310Z,1004.25
2017-03-24T08:09:37.937Z,1004.24
2017-03-24T08:10:18.633Z,1004.27
2017-03-24T08:10:59.311Z,1004.28
2017-03-24T08:11:40.010Z,1004.28
2017-03-24T08:12:20.653Z,1004.3
2017-03-24T08:13:01.344Z,1004.32
2017-03-24T08:13:41.968Z,1004.31